Time;durP1;ratioP1;P1;durP2;ratioP2;P2;SDS_P1;SDS_P2;PMS_P1;PMS_P2;Temp;Humidity;BMP_temperature;BMP_pressure;BME280_temperature;BME280_humidity;BME280_pressure;Samples;Min_cycle;Max_cycle;Signal;HPM_P1;HPM_P2
2022/07/26 00:00:57;;;;;;;4.55;4.25;;;;;;;;;;5125381;27;20203;-64
2022/07/26 00:03:25;;;;;;;5.00;4.60;;;;;;;;;;5133202;27;20583;-64
2022/07/26 00:05:52;;;;;;;4.70;4.32;;;;;;;;;;5126186;27;20223;-64
2022/07/26 00:08:19;;;;;;;4.63;4.32;;;;;;;;;;5120048;28;20268;-64
2022/07/26 00:10:48;;;;;;;4.50;4.10;;;;;;;;;;5119594;28;20264;-65
2022/07/26 00:13:17;;;;;;;4.65;4.25;;;;;;;;;;5118881;28;20207;-64
2022/07/26 00:15:45;;;;;;;4.45;4.15;;;;;;;;;;5121790;27;20195;-64
2022/07/26 00:18:14;;;;;;;4.75;4.35;;;;;;;;;;5118095;27;20199;-64
2022/07/26 00:20:41;;;;;;;4.53;4.22;;;;;;;;;;5119603;27;20199;-64
2022/07/26 00:23:09;;;;;;;4.60;4.30;;;;;;;;;;5138883;27;20198;-64
2022/07/26 00:25:36;;;;;;;4.38;4.07;;;;;;;;;;5121358;27;20223;-64
2022/07/26 00:28:04;;;;;;;4.40;4.10;;;;;;;;;;5125227;27;20202;-65
2022/07/26 00:30:31;;;;;;;4.35;4.05;;;;;;;;;;5134568;27;20190;-64
2022/07/26 00:32:59;;;;;;;4.70;4.30;;;;;;;;;;5139455;27;20258;-64
2022/07/26 00:35:27;;;;;;;4.47;4.18;;;;;;;;;;5123776;27;20195;-64
2022/07/26 00:37:55;;;;;;;4.68;4.38;;;;;;;;;;5136008;27;20202;-64
2022/07/26 00:40:22;;;;;;;4.53;4.22;;;;;;;;;;5124607;27;20219;-65
2022/07/26 00:42:50;;;;;;;4.60;4.30;;;;;;;;;;5136574;27;20203;-64
2022/07/26 00:45:17;;;;;;;4.38;4.07;;;;;;;;;;5132575;27;20613;-64
2022/07/26 00:47:45;;;;;;;4.82;4.40;;;;;;;;;;5139812;27;20202;-64
2022/07/26 00:50:13;;;;;;;4.60;4.30;;;;;;;;;;5139699;27;20210;-64
2022/07/26 00:52:43;;;;;;;4.38;4.05;;;;;;;;;;5139491;27;20210;-64
2022/07/26 00:55:11;;;;;;;4.65;4.25;;;;;;;;;;5139542;27;20199;-64
2022/07/26 00:57:39;;;;;;;4.80;4.50;;;;;;;;;;5139672;27;20202;-64
2022/07/26 01:00:07;;;;;;;4.55;4.20;;;;;;;;;;5140000;27;20271;-64
2022/07/26 01:02:34;;;;;;;4.18;3.88;;;;;;;;;;5139643;27;20508;-64
2022/07/26 01:05:01;;;;;;;4.90;4.50;;;;;;;;;;5139753;27;20249;-64
2022/07/26 01:07:29;;;;;;;4.40;4.10;;;;;;;;;;5139685;27;20202;-64
2022/07/26 01:09:58;;;;;;;4.68;4.38;;;;;;;;;;5139504;27;20638;-64
2022/07/26 01:12:26;;;;;;;4.53;4.20;;;;;;;;;;5139531;27;20232;-64
2022/07/26 01:14:53;;;;;;;4.35;4.05;;;;;;;;;;5139645;27;20646;-64
2022/07/26 01:17:20;;;;;;;4.60;4.20;;;;;;;;;;5139439;27;20202;-64
2022/07/26 01:19:48;;;;;;;4.85;4.47;;;;;;;;;;5139585;27;20263;-64
2022/07/26 01:22:17;;;;;;;4.53;4.22;;;;;;;;;;5139519;27;20631;-64
2022/07/26 01:24:44;;;;;;;4.55;4.25;;;;;;;;;;5139534;27;20236;-64
2022/07/26 01:27:11;;;;;;;4.35;4.05;;;;;;;;;;5122096;27;20210;-64
2022/07/26 01:29:38;;;;;;;4.70;4.30;;;;;;;;;;5139047;27;20567;-64
2022/07/26 01:32:06;;;;;;;4.28;3.97;;;;;;;;;;5139118;27;20512;-64
2022/07/26 01:34:34;;;;;;;4.68;4.38;;;;;;;;;;5139107;27;20202;-64
2022/07/26 01:37:01;;;;;;;4.57;4.28;;;;;;;;;;5139173;27;20207;-64
2022/07/26 01:39:30;;;;;;;4.35;4.05;;;;;;;;;;5132634;27;20205;-64
2022/07/26 01:41:58;;;;;;;4.63;4.32;;;;;;;;;;5136747;27;20545;-63
2022/07/26 01:44:25;;;;;;;4.40;4.10;;;;;;;;;;5138397;27;20198;-64
2022/07/26 01:46:52;;;;;;;4.28;3.97;;;;;;;;;;5138291;28;20194;-63
2022/07/26 01:49:20;;;;;;;4.35;4.05;;;;;;;;;;5137721;27;20202;-63
2022/07/26 01:51:47;;;;;;;4.40;4.10;;;;;;;;;;5137806;28;20574;-63
2022/07/26 01:54:14;;;;;;;5.50;4.15;;;;;;;;;;5138599;28;20203;-63
2022/07/26 01:56:43;;;;;;;4.53;4.22;;;;;;;;;;5138914;28;20198;-63
2022/07/26 01:59:10;;;;;;;4.55;4.15;;;;;;;;;;5138591;28;20259;-64
2022/07/26 02:01:38;;;;;;;4.50;4.10;;;;;;;;;;5138158;28;20550;-64
2022/07/26 02:04:05;;;;;;;4.22;3.92;;;;;;;;;;5138887;28;20221;-64
2022/07/26 02:06:33;;;;;;;4.43;4.13;;;;;;;;;;5138644;28;20233;-63
2022/07/26 02:09:00;;;;;;;4.35;4.05;;;;;;;;;;5138093;28;20244;-63
2022/07/26 02:11:28;;;;;;;4.05;3.75;;;;;;;;;;5138102;28;20258;-63
2022/07/26 02:13:57;;;;;;;4.03;3.75;;;;;;;;;;5138225;28;20202;-63
2022/07/26 02:16:24;;;;;;;4.47;4.18;;;;;;;;;;5137916;27;20237;-63
2022/07/26 02:18:51;;;;;;;4.20;3.90;;;;;;;;;;5137530;28;20222;-64
2022/07/26 02:21:18;;;;;;;4.40;4.10;;;;;;;;;;5137415;28;20230;-63
2022/07/26 02:23:46;;;;;;;3.83;3.53;;;;;;;;;;5137770;28;20226;-63
2022/07/26 02:26:13;;;;;;;4.15;3.85;;;;;;;;;;5137117;28;20371;-64
2022/07/26 02:28:41;;;;;;;4.10;3.80;;;;;;;;;;5130650;28;20579;-63
2022/07/26 02:31:09;;;;;;;4.00;3.70;;;;;;;;;;5117369;28;20284;-64
2022/07/26 02:33:37;;;;;;;4.00;3.60;;;;;;;;;;5116753;28;20593;-63
2022/07/26 02:36:04;;;;;;;4.00;3.70;;;;;;;;;;5117984;28;20619;-65
2022/07/26 02:38:31;;;;;;;3.90;3.60;;;;;;;;;;5116095;28;20700;-64
2022/07/26 02:40:58;;;;;;;3.97;3.72;;;;;;;;;;5116596;28;20223;-64
2022/07/26 02:43:27;;;;;;;3.95;3.72;;;;;;;;;;5117359;28;20231;-64
2022/07/26 02:45:54;;;;;;;4.07;3.78;;;;;;;;;;5116926;28;20270;-64
2022/07/26 02:48:23;;;;;;;3.80;3.53;;;;;;;;;;5116995;28;20231;-64
2022/07/26 02:50:50;;;;;;;3.50;3.30;;;;;;;;;;5116536;28;20223;-63
2022/07/26 02:53:18;;;;;;;3.72;3.42;;;;;;;;;;5116909;28;20230;-63
2022/07/26 02:55:45;;;;;;;3.30;3.10;;;;;;;;;;5116319;28;20631;-64
2022/07/26 02:58:12;;;;;;;3.50;3.30;;;;;;;;;;5117010;28;20245;-64
2022/07/26 03:00:40;;;;;;;3.40;3.20;;;;;;;;;;5117992;28;20618;-63
2022/07/26 03:03:07;;;;;;;3.50;3.30;;;;;;;;;;5120252;28;20223;-64
2022/07/26 03:05:36;;;;;;;3.38;3.13;;;;;;;;;;5119988;28;20311;-64
2022/07/26 03:08:04;;;;;;;3.47;3.25;;;;;;;;;;5120485;28;20530;-64
2022/07/26 03:10:31;;;;;;;3.30;3.10;;;;;;;;;;5120714;28;20214;-63
2022/07/26 03:12:58;;;;;;;3.33;3.13;;;;;;;;;;5120522;28;20210;-64
2022/07/26 03:15:26;;;;;;;3.78;3.47;;;;;;;;;;5120905;28;20583;-63
2022/07/26 03:17:54;;;;;;;3.47;3.20;;;;;;;;;;5120304;28;20532;-64
2022/07/26 03:20:21;;;;;;;4.35;3.30;;;;;;;;;;5119131;28;20213;-63
2022/07/26 03:22:50;;;;;;;3.30;3.10;;;;;;;;;;5120096;28;20199;-64
2022/07/26 03:25:18;;;;;;;3.30;3.10;;;;;;;;;;5120404;28;20538;-64
2022/07/26 03:27:45;;;;;;;3.13;2.92;;;;;;;;;;5120543;28;20276;-63
2022/07/26 03:30:13;;;;;;;3.20;3.00;;;;;;;;;;5132637;27;20235;-65
2022/07/26 03:32:40;;;;;;;3.30;3.10;;;;;;;;;;5120700;27;20203;-63
2022/07/26 03:35:08;;;;;;;3.20;3.00;;;;;;;;;;5134160;27;20297;-64
2022/07/26 03:37:36;;;;;;;2.90;2.70;;;;;;;;;;5140814;27;20202;-64
2022/07/26 03:40:06;;;;;;;2.97;2.78;;;;;;;;;;5130913;27;20259;-63
2022/07/26 03:42:33;;;;;;;3.30;3.10;;;;;;;;;;5141140;27;20641;-64
2022/07/26 03:45:01;;;;;;;2.90;2.70;;;;;;;;;;5099571;28;20544;-64
2022/07/26 03:47:28;;;;;;;3.00;2.80;;;;;;;;;;5099575;28;20203;-63
2022/07/26 03:49:56;;;;;;;2.90;2.70;;;;;;;;;;5129696;27;20195;-64
2022/07/26 03:52:23;;;;;;;3.15;2.95;;;;;;;;;;5133937;27;20201;-63
2022/07/26 03:54:50;;;;;;;2.90;2.70;;;;;;;;;;5131540;27;20199;-64
2022/07/26 03:57:18;;;;;;;3.10;2.90;;;;;;;;;;5140992;27;20227;-64
2022/07/26 03:59:45;;;;;;;3.25;3.05;;;;;;;;;;5140298;27;20210;-63
2022/07/26 04:02:12;;;;;;;3.00;2.80;;;;;;;;;;5140336;27;20210;-64
2022/07/26 04:04:40;;;;;;;2.75;2.55;;;;;;;;;;5140344;27;20262;-64
2022/07/26 04:07:07;;;;;;;2.80;2.60;;;;;;;;;;5140121;27;20229;-64
2022/07/26 04:09:34;;;;;;;2.92;2.67;;;;;;;;;;5140378;27;20296;-63
2022/07/26 04:12:02;;;;;;;2.85;2.65;;;;;;;;;;5140289;27;20224;-63
2022/07/26 04:14:30;;;;;;;2.58;2.38;;;;;;;;;;5140513;27;20290;-64
2022/07/26 04:16:58;;;;;;;2.80;2.60;;;;;;;;;;5139993;27;20208;-63
2022/07/26 04:19:25;;;;;;;2.72;2.53;;;;;;;;;;5139911;27;20202;-63
2022/07/26 04:21:53;;;;;;;2.92;2.72;;;;;;;;;;5139831;27;20241;-64
2022/07/26 04:24:20;;;;;;;2.72;2.63;;;;;;;;;;5139563;27;20202;-64
2022/07/26 04:26:47;;;;;;;2.72;2.53;;;;;;;;;;5139255;27;20245;-63
2022/07/26 04:29:15;;;;;;;2.72;2.53;;;;;;;;;;5138850;27;20626;-64
2022/07/26 04:31:43;;;;;;;2.60;2.40;;;;;;;;;;5139716;27;20229;-63
2022/07/26 04:34:10;;;;;;;2.90;2.70;;;;;;;;;;5139258;27;20274;-64
2022/07/26 04:36:38;;;;;;;2.80;2.60;;;;;;;;;;5139295;27;20199;-64
2022/07/26 04:39:05;;;;;;;2.30;2.20;;;;;;;;;;5119127;27;20207;-64
2022/07/26 04:41:32;;;;;;;2.67;2.47;;;;;;;;;;5118352;28;20595;-63
2022/07/26 04:44:00;;;;;;;2.92;2.72;;;;;;;;;;5118292;28;20290;-64
2022/07/26 04:46:27;;;;;;;2.40;2.22;;;;;;;;;;5118642;28;20348;-64
2022/07/26 04:48:56;;;;;;;2.45;2.33;;;;;;;;;;5118643;28;20203;-64
2022/07/26 04:51:24;;;;;;;2.50;2.38;;;;;;;;;;5118860;28;20203;-64
2022/07/26 04:53:51;;;;;;;2.72;2.47;;;;;;;;;;5117778;28;20202;-64
2022/07/26 04:56:19;;;;;;;2.55;2.40;;;;;;;;;;5117979;28;20211;-63
2022/07/26 04:58:47;;;;;;;2.95;2.35;;;;;;;;;;5118390;28;20203;-64
2022/07/26 05:01:14;;;;;;;2.40;2.30;;;;;;;;;;5120993;27;20201;-63
2022/07/26 05:03:41;;;;;;;2.47;2.22;;;;;;;;;;5130245;27;20636;-64
2022/07/26 05:06:10;;;;;;;2.30;2.20;;;;;;;;;;5117199;27;20231;-63
2022/07/26 05:08:38;;;;;;;2.38;2.28;;;;;;;;;;5121406;27;20190;-64
2022/07/26 05:11:05;;;;;;;2.45;2.25;;;;;;;;;;5135751;27;20206;-63
2022/07/26 05:13:32;;;;;;;2.10;2.00;;;;;;;;;;5116581;28;20199;-64
2022/07/26 05:16:00;;;;;;;2.42;2.22;;;;;;;;;;5117559;28;20539;-64
2022/07/26 05:18:28;;;;;;;2.40;2.30;;;;;;;;;;5117415;28;20203;-64
2022/07/26 05:20:55;;;;;;;2.30;2.10;;;;;;;;;;5117298;28;20203;-64
2022/07/26 05:23:24;;;;;;;2.72;2.53;;;;;;;;;;5136606;27;20260;-64
2022/07/26 05:25:51;;;;;;;2.38;2.17;;;;;;;;;;5137619;27;20718;-63
2022/07/26 05:28:19;;;;;;;2.53;2.33;;;;;;;;;;5137265;27;20241;-63
2022/07/26 05:30:46;;;;;;;2.40;2.20;;;;;;;;;;5138034;27;20267;-64
2022/07/26 05:33:14;;;;;;;2.30;2.10;;;;;;;;;;5136675;27;20259;-63
2022/07/26 05:35:41;;;;;;;2.00;1.90;;;;;;;;;;5136981;27;20259;-63
2022/07/26 05:38:08;;;;;;;2.17;2.08;;;;;;;;;;5137025;27;20270;-63
2022/07/26 05:40:37;;;;;;;2.22;1.92;;;;;;;;;;5129288;27;20191;-63
2022/07/26 05:43:04;;;;;;;2.55;2.35;;;;;;;;;;5135109;27;20209;-64
2022/07/26 05:45:32;;;;;;;2.28;2.17;;;;;;;;;;5136777;27;20263;-63
2022/07/26 05:47:59;;;;;;;2.45;2.35;;;;;;;;;;5136356;28;20222;-64
2022/07/26 05:50:27;;;;;;;2.45;2.35;;;;;;;;;;5116712;28;20205;-64
2022/07/26 05:52:54;;;;;;;2.40;2.20;;;;;;;;;;5129007;28;20202;-64
2022/07/26 05:55:21;;;;;;;2.15;2.05;;;;;;;;;;5136913;28;20596;-63
2022/07/26 05:57:50;;;;;;;2.53;2.33;;;;;;;;;;5137096;28;20747;-64
2022/07/26 06:00:17;;;;;;;2.38;2.17;;;;;;;;;;5136351;28;20571;-63
2022/07/26 06:02:45;;;;;;;2.33;2.17;;;;;;;;;;5121372;28;20198;-64
2022/07/26 06:05:14;;;;;;;2.00;1.90;;;;;;;;;;5134634;28;20577;-64
2022/07/26 06:07:41;;;;;;;2.30;2.17;;;;;;;;;;5129742;28;20823;-64
2022/07/26 06:10:09;;;;;;;2.08;1.98;;;;;;;;;;5125789;28;20203;-64
2022/07/26 06:12:36;;;;;;;2.03;1.92;;;;;;;;;;5129284;28;20194;-64
2022/07/26 06:15:06;;;;;;;2.30;2.10;;;;;;;;;;5137138;28;20258;-64
2022/07/26 06:17:33;;;;;;;2.40;2.20;;;;;;;;;;5137722;28;20254;-71
2022/07/26 06:20:01;;;;;;;2.65;2.45;;;;;;;;;;5119270;28;20264;-63
2022/07/26 06:22:28;;;;;;;2.75;2.55;;;;;;;;;;5119876;28;20268;-64
2022/07/26 06:24:55;;;;;;;2.92;2.72;;;;;;;;;;5117022;28;20206;-64
2022/07/26 06:27:22;;;;;;;2.80;2.60;;;;;;;;;;5115866;28;20226;-64
2022/07/26 06:29:51;;;;;;;2.80;2.60;;;;;;;;;;5115091;28;20307;-64
2022/07/26 06:32:20;;;;;;;2.92;2.70;;;;;;;;;;5115753;28;20203;-64
2022/07/26 06:34:47;;;;;;;2.90;2.55;;;;;;;;;;5118177;28;20199;-64
2022/07/26 06:37:15;;;;;;;2.90;2.67;;;;;;;;;;5119733;28;20575;-64
2022/07/26 06:39:42;;;;;;;3.05;2.80;;;;;;;;;;5119205;28;20601;-64
2022/07/26 06:42:09;;;;;;;3.00;2.80;;;;;;;;;;5120206;28;20199;-64
2022/07/26 06:44:37;;;;;;;3.22;2.92;;;;;;;;;;5119749;28;20206;-65
2022/07/26 06:47:04;;;;;;;2.75;2.55;;;;;;;;;;5119214;28;20222;-64
2022/07/26 06:49:33;;;;;;;3.22;2.70;;;;;;;;;;5119605;28;20364;-63
2022/07/26 06:52:00;;;;;;;3.45;2.50;;;;;;;;;;5118731;28;20195;-65
2022/07/26 06:54:28;;;;;;;2.90;2.70;;;;;;;;;;5118234;28;20881;-64
2022/07/26 06:56:55;;;;;;;3.40;2.88;;;;;;;;;;5118405;28;20191;-64
2022/07/26 06:59:23;;;;;;;3.50;2.92;;;;;;;;;;5117621;28;20613;-64
2022/07/26 07:01:50;;;;;;;3.25;2.80;;;;;;;;;;5118247;28;20203;-64
2022/07/26 07:04:17;;;;;;;2.90;2.60;;;;;;;;;;5118374;28;20265;-64
2022/07/26 07:06:46;;;;;;;3.10;2.75;;;;;;;;;;5117990;28;20219;-64
2022/07/26 07:09:13;;;;;;;5.63;3.03;;;;;;;;;;5118285;28;20203;-64
2022/07/26 07:11:41;;;;;;;3.60;2.70;;;;;;;;;;5118055;28;20202;-64
2022/07/26 07:14:09;;;;;;;4.90;3.10;;;;;;;;;;5123956;27;20261;-66
2022/07/26 07:16:36;;;;;;;4.40;2.60;;;;;;;;;;5118050;28;20203;-64
2022/07/26 07:19:03;;;;;;;3.38;3.08;;;;;;;;;;5118944;28;20210;-64
2022/07/26 07:21:31;;;;;;;3.47;2.60;;;;;;;;;;5118234;28;20221;-64
2022/07/26 07:24:00;;;;;;;2.90;2.50;;;;;;;;;;5118855;28;20210;-64
2022/07/26 07:26:27;;;;;;;3.05;2.50;;;;;;;;;;5118147;28;20494;-64
2022/07/26 07:28:54;;;;;;;3.65;2.80;;;;;;;;;;5124250;27;20233;-64
2022/07/26 07:31:21;;;;;;;3.38;2.75;;;;;;;;;;5127662;27;20226;-64
2022/07/26 07:33:49;;;;;;;3.25;2.65;;;;;;;;;;5138544;27;20237;-64
2022/07/26 07:36:16;;;;;;;3.15;2.65;;;;;;;;;;5120417;27;20296;-64
2022/07/26 07:38:45;;;;;;;3.17;2.88;;;;;;;;;;5117414;28;20218;-64
2022/07/26 07:41:13;;;;;;;2.88;2.60;;;;;;;;;;5116888;28;20227;-65
2022/07/26 07:43:41;;;;;;;4.18;2.60;;;;;;;;;;5117570;28;20244;-64
2022/07/26 07:46:08;;;;;;;5.75;2.40;;;;;;;;;;5116656;28;20234;-64
2022/07/26 07:48:35;;;;;;;3.30;2.20;;;;;;;;;;5135535;27;20724;-65
2022/07/26 07:51:02;;;;;;;4.57;2.60;;;;;;;;;;5136483;27;20219;-64
2022/07/26 07:53:30;;;;;;;2.55;2.05;;;;;;;;;;5120196;27;20223;-64
2022/07/26 07:55:57;;;;;;;3.50;2.50;;;;;;;;;;5135544;27;20267;-64
2022/07/26 07:58:26;;;;;;;5.05;2.38;;;;;;;;;;5137244;27;20309;-64
2022/07/26 08:00:53;;;;;;;4.03;2.22;;;;;;;;;;5135778;27;20881;-64
2022/07/26 08:03:21;;;;;;;2.33;2.13;;;;;;;;;;5120698;27;20276;-64
2022/07/26 08:05:48;;;;;;;4.95;2.20;;;;;;;;;;5130956;27;20566;-64
2022/07/26 08:08:16;;;;;;;2.28;2.05;;;;;;;;;;5136981;27;20230;-64
2022/07/26 08:10:43;;;;;;;1.98;1.77;;;;;;;;;;5135381;27;20241;-64
2022/07/26 08:13:11;;;;;;;3.60;2.33;;;;;;;;;;5118962;27;20230;-64
2022/07/26 08:15:39;;;;;;;2.25;2.03;;;;;;;;;;5115762;27;20223;-64
2022/07/26 08:18:07;;;;;;;2.25;1.98;;;;;;;;;;5116544;27;20480;-64
2022/07/26 08:20:34;;;;;;;2.78;1.92;;;;;;;;;;5116740;27;20218;-64
2022/07/26 08:23:01;;;;;;;2.42;1.90;;;;;;;;;;5116524;27;20758;-65
2022/07/26 08:25:29;;;;;;;4.13;2.00;;;;;;;;;;5116101;28;20226;-65
2022/07/26 08:27:56;;;;;;;2.30;1.92;;;;;;;;;;5116038;28;20284;-64
2022/07/26 08:30:23;;;;;;;2.60;2.15;;;;;;;;;;5125353;27;20236;-64
2022/07/26 08:32:52;;;;;;;2.55;1.83;;;;;;;;;;5118988;27;20218;-64
2022/07/26 08:35:20;;;;;;;1.80;1.70;;;;;;;;;;5124995;27;20222;-64
2022/07/26 08:37:47;;;;;;;1.90;1.80;;;;;;;;;;5136476;27;20248;-64
2022/07/26 08:40:14;;;;;;;2.50;1.90;;;;;;;;;;5131080;27;20291;-64
2022/07/26 08:42:49;;;;;;;2.95;1.90;;;;;;;;;;5119531;27;20237;-64
2022/07/26 08:45:21;;;;;;;1.90;1.70;;;;;;;;;;5135972;27;20224;-71
2022/07/26 08:47:48;;;;;;;1.73;1.52;;;;;;;;;;5136203;27;20226;-65
2022/07/26 08:50:17;;;;;;;1.90;1.67;;;;;;;;;;5127111;27;20227;-64
2022/07/26 08:52:45;;;;;;;4.53;1.75;;;;;;;;;;5134902;27;20567;-64
2022/07/26 08:55:16;;;;;;;2.17;1.70;;;;;;;;;;5133716;27;20226;-64
2022/07/26 08:57:43;;;;;;;1.73;1.50;;;;;;;;;;5123648;27;20231;-63
2022/07/26 09:00:18;;;;;;;2.88;1.90;;;;;;;;;;5122482;27;20263;-63
2022/07/26 09:02:45;;;;;;;2.17;1.70;;;;;;;;;;5135509;27;20225;-63
2022/07/26 09:05:13;;;;;;;3.03;1.67;;;;;;;;;;5127382;27;20227;-64
2022/07/26 09:07:43;;;;;;;2.38;1.77;;;;;;;;;;5115977;27;20241;-64
2022/07/26 09:10:11;;;;;;;2.10;1.77;;;;;;;;;;5123862;27;20233;-63
2022/07/26 09:12:39;;;;;;;1.70;1.60;;;;;;;;;;5133008;27;20225;-64
2022/07/26 09:15:07;;;;;;;3.00;1.40;;;;;;;;;;5115342;28;20211;-63
2022/07/26 09:17:39;;;;;;;1.77;1.67;;;;;;;;;;5115661;28;20210;-64
2022/07/26 09:20:08;;;;;;;3.72;1.58;;;;;;;;;;5124613;27;20260;-63
2022/07/26 09:22:36;;;;;;;1.85;1.60;;;;;;;;;;5127912;27;20281;-64
2022/07/26 09:25:19;;;;;;;1.80;1.50;;;;;;;;;;5129132;27;20206;-63
2022/07/26 09:27:46;;;;;;;2.75;1.50;;;;;;;;;;5115110;28;20250;-64
2022/07/26 09:30:14;;;;;;;1.60;1.50;;;;;;;;;;5127834;27;20226;-64
2022/07/26 09:32:43;;;;;;;2.25;1.20;;;;;;;;;;5135531;27;20209;-64
2022/07/26 09:35:11;;;;;;;2.63;1.35;;;;;;;;;;5135589;27;20210;-64
2022/07/26 09:37:42;;;;;;;1.23;1.20;;;;;;;;;;5136335;27;20554;-63
2022/07/26 09:40:12;;;;;;;2.15;1.20;;;;;;;;;;5123856;27;20263;-64
2022/07/26 09:42:53;;;;;;;1.48;1.35;;;;;;;;;;5116067;28;20233;-64
2022/07/26 09:45:21;;;;;;;2.22;1.50;;;;;;;;;;5128944;27;20255;-63
2022/07/26 09:47:48;;;;;;;1.60;1.35;;;;;;;;;;5135297;28;20214;-64
2022/07/26 09:50:16;;;;;;;2.58;1.33;;;;;;;;;;5128381;28;20276;-63
2022/07/26 09:52:57;;;;;;;2.53;1.60;;;;;;;;;;5124475;28;20202;-63
2022/07/26 09:55:26;;;;;;;1.90;1.38;;;;;;;;;;5136043;28;20202;-63
2022/07/26 09:57:54;;;;;;;1.30;1.20;;;;;;;;;;5136767;28;20225;-63
2022/07/26 10:00:24;;;;;;;2.28;1.25;;;;;;;;;;5133055;28;20675;-63
2022/07/26 10:02:52;;;;;;;1.50;1.30;;;;;;;;;;5134556;28;20206;-63
2022/07/26 10:05:20;;;;;;;1.55;1.30;;;;;;;;;;5134748;28;20537;-63
2022/07/26 10:07:47;;;;;;;1.77;1.30;;;;;;;;;;5134831;28;20283;-64
2022/07/26 10:10:17;;;;;;;1.85;1.20;;;;;;;;;;5136051;27;20289;-64
2022/07/26 10:12:46;;;;;;;1.38;1.17;;;;;;;;;;5139250;27;20259;-63
2022/07/26 10:15:28;;;;;;;1.42;1.23;;;;;;;;;;5125811;27;20206;-63
2022/07/26 10:17:55;;;;;;;1.98;1.33;;;;;;;;;;5135821;27;20578;-64
2022/07/26 10:20:39;;;;;;;1.67;1.13;;;;;;;;;;5134615;27;20190;-64
2022/07/26 10:23:22;;;;;;;1.35;1.25;;;;;;;;;;5139317;27;20263;-63
2022/07/26 10:25:49;;;;;;;1.67;1.20;;;;;;;;;;5132583;27;20251;-64
2022/07/26 10:28:25;;;;;;;2.22;1.35;;;;;;;;;;5122607;27;20633;-64
2022/07/26 10:30:53;;;;;;;1.23;1.13;;;;;;;;;;5137575;27;20228;-64
2022/07/26 10:33:22;;;;;;;1.98;1.30;;;;;;;;;;5137687;27;20259;-63
2022/07/26 10:35:49;;;;;;;1.65;1.27;;;;;;;;;;5135741;27;20483;-64
2022/07/26 10:38:23;;;;;;;1.30;1.20;;;;;;;;;;5122451;27;20251;-64
2022/07/26 10:40:56;;;;;;;1.58;1.17;;;;;;;;;;5137458;27;20198;-63
2022/07/26 10:43:25;;;;;;;1.20;0.95;;;;;;;;;;5138694;27;20255;-64
2022/07/26 10:46:14;;;;;;;1.20;1.00;;;;;;;;;;5135390;27;20259;-63
2022/07/26 10:48:56;;;;;;;1.35;1.10;;;;;;;;;;5125926;27;21545;-63
2022/07/26 10:51:28;;;;;;;1.20;1.10;;;;;;;;;;5138506;27;20289;-63
2022/07/26 10:54:01;;;;;;;1.10;1.00;;;;;;;;;;5139141;27;20202;-63
2022/07/26 10:56:29;;;;;;;2.00;1.17;;;;;;;;;;5125710;27;20198;-63
2022/07/26 10:58:58;;;;;;;2.35;1.17;;;;;;;;;;5138361;27;20645;-63
2022/07/26 11:01:33;;;;;;;1.17;1.08;;;;;;;;;;5127744;27;20542;-64
2022/07/26 11:04:00;;;;;;;2.05;1.08;;;;;;;;;;5138920;27;20282;-63
2022/07/26 11:06:28;;;;;;;1.10;1.00;;;;;;;;;;5138446;27;20256;-63
2022/07/26 11:08:56;;;;;;;1.23;1.10;;;;;;;;;;5137079;27;20299;-63
2022/07/26 11:11:30;;;;;;;1.63;1.10;;;;;;;;;;5135841;27;20206;-63
2022/07/26 11:14:08;;;;;;;1.20;1.10;;;;;;;;;;5138679;27;20213;-64
2022/07/26 11:16:40;;;;;;;1.65;1.20;;;;;;;;;;5137444;27;20206;-64
2022/07/26 11:19:15;;;;;;;1.38;1.08;;;;;;;;;;5138272;27;20195;-64
2022/07/26 11:21:42;;;;;;;1.38;1.00;;;;;;;;;;5132842;27;20187;-63
2022/07/26 11:24:10;;;;;;;1.40;1.10;;;;;;;;;;5137157;27;20195;-63
2022/07/26 11:26:43;;;;;;;1.30;1.20;;;;;;;;;;5126148;27;20198;-64
2022/07/26 11:29:12;;;;;;;1.10;1.00;;;;;;;;;;5138493;27;20230;-63
2022/07/26 11:31:40;;;;;;;1.02;0.93;;;;;;;;;;5137623;27;20255;-63
2022/07/26 11:34:08;;;;;;;0.88;0.85;;;;;;;;;;5137223;27;20194;-65
2022/07/26 11:36:36;;;;;;;1.05;0.90;;;;;;;;;;5119556;27;20210;-63
2022/07/26 11:39:05;;;;;;;1.30;1.00;;;;;;;;;;5132040;27;20304;-64
2022/07/26 11:41:33;;;;;;;1.17;0.98;;;;;;;;;;5136199;27;20198;-64
2022/07/26 11:44:01;;;;;;;1.00;0.98;;;;;;;;;;5136528;27;20202;-64
2022/07/26 11:46:37;;;;;;;1.02;0.90;;;;;;;;;;5138312;27;20297;-64
2022/07/26 11:49:06;;;;;;;0.88;0.88;;;;;;;;;;5124714;27;20292;-64
2022/07/26 11:51:33;;;;;;;1.23;0.88;;;;;;;;;;5121954;27;20346;-63
2022/07/26 11:54:03;;;;;;;1.00;0.90;;;;;;;;;;5135847;27;20289;-63
2022/07/26 11:56:31;;;;;;;0.80;0.80;;;;;;;;;;5124905;27;20247;-64
2022/07/26 11:58:59;;;;;;;1.48;0.70;;;;;;;;;;5137128;27;20194;-64
2022/07/26 12:01:27;;;;;;;2.40;0.85;;;;;;;;;;5136344;27;20262;-64
2022/07/26 12:03:56;;;;;;;0.85;0.80;;;;;;;;;;5137517;27;20671;-64
2022/07/26 12:06:25;;;;;;;0.70;0.70;;;;;;;;;;5124715;27;20226;-63
2022/07/26 12:08:54;;;;;;;0.90;0.90;;;;;;;;;;5135325;27;20224;-64
2022/07/26 12:11:22;;;;;;;0.75;0.75;;;;;;;;;;5123363;27;20286;-63
2022/07/26 12:13:50;;;;;;;0.60;0.60;;;;;;;;;;5126101;27;20209;-63
2022/07/26 12:16:36;;;;;;;0.82;0.77;;;;;;;;;;5135843;27;20195;-63
2022/07/26 12:19:04;;;;;;;1.20;0.70;;;;;;;;;;5116614;28;20195;-64
2022/07/26 12:21:39;;;;;;;1.70;0.80;;;;;;;;;;5134868;27;20202;-63
2022/07/26 12:24:06;;;;;;;0.93;0.77;;;;;;;;;;5135590;27;20201;-63
2022/07/26 12:26:34;;;;;;;0.80;0.80;;;;;;;;;;5134652;27;20194;-63
2022/07/26 12:31:43;;;;;;;1.35;0.77;;;;;;;;;;5134854;27;20566;-63
2022/07/26 12:34:11;;;;;;;1.15;0.80;;;;;;;;;;5127983;27;20658;-63
2022/07/26 12:36:39;;;;;;;1.10;1.00;;;;;;;;;;5116778;27;20203;-63
2022/07/26 12:39:06;;;;;;;0.85;0.80;;;;;;;;;;5131214;27;20199;-63
2022/07/26 12:41:35;;;;;;;0.90;0.90;;;;;;;;;;5130345;27;20198;-63
2022/07/26 12:44:03;;;;;;;1.48;0.65;;;;;;;;;;5121472;27;20199;-64
2022/07/26 12:46:33;;;;;;;0.75;0.75;;;;;;;;;;5134783;27;20190;-63
2022/07/26 12:49:00;;;;;;;0.85;0.82;;;;;;;;;;5135165;27;20243;-63
2022/07/26 12:51:29;;;;;;;1.27;0.90;;;;;;;;;;5133990;27;20269;-63
2022/07/26 12:53:56;;;;;;;1.15;0.75;;;;;;;;;;5125632;27;20199;-63
2022/07/26 12:56:24;;;;;;;0.77;0.77;;;;;;;;;;5129168;27;20190;-69
2022/07/26 12:58:52;;;;;;;0.98;0.90;;;;;;;;;;5127475;27;20222;-63
2022/07/26 13:01:20;;;;;;;1.30;0.80;;;;;;;;;;5128134;27;20198;-63
2022/07/26 13:03:47;;;;;;;1.00;0.70;;;;;;;;;;5135749;27;20239;-63
2022/07/26 13:06:14;;;;;;;1.48;1.00;;;;;;;;;;5135102;27;20638;-63
2022/07/26 13:08:43;;;;;;;1.40;0.80;;;;;;;;;;5136228;27;20222;-64
2022/07/26 13:11:10;;;;;;;0.80;0.80;;;;;;;;;;5135333;27;20197;-68
2022/07/26 13:13:38;;;;;;;0.98;0.95;;;;;;;;;;5127751;27;20191;-64
2022/07/26 13:16:06;;;;;;;0.90;0.90;;;;;;;;;;5135093;27;20210;-64
2022/07/26 13:18:33;;;;;;;1.02;0.90;;;;;;;;;;5135364;27;20483;-64
2022/07/26 13:21:00;;;;;;;1.17;1.00;;;;;;;;;;5131189;27;20205;-64
2022/07/26 13:23:28;;;;;;;1.20;0.90;;;;;;;;;;5135978;27;20202;-64
2022/07/26 13:25:56;;;;;;;1.02;0.90;;;;;;;;;;5134880;27;20262;-64
2022/07/26 13:28:24;;;;;;;0.90;0.90;;;;;;;;;;5120928;27;20230;-63
2022/07/26 13:30:51;;;;;;;0.90;0.90;;;;;;;;;;5133841;27;20661;-64
2022/07/26 13:33:19;;;;;;;1.27;0.77;;;;;;;;;;5128728;27;20221;-63
2022/07/26 13:35:46;;;;;;;1.30;1.00;;;;;;;;;;5134179;27;20689;-64
2022/07/26 13:38:13;;;;;;;1.17;0.90;;;;;;;;;;5135857;27;20203;-63
2022/07/26 13:40:41;;;;;;;1.15;0.80;;;;;;;;;;5126822;27;20187;-64
2022/07/26 13:43:09;;;;;;;2.60;1.08;;;;;;;;;;5126558;27;20206;-63
2022/07/26 13:45:36;;;;;;;1.25;1.00;;;;;;;;;;5133992;27;20698;-64
2022/07/26 13:48:04;;;;;;;0.80;0.80;;;;;;;;;;5133630;27;20575;-63
2022/07/26 13:50:31;;;;;;;1.50;0.80;;;;;;;;;;5123872;27;20271;-63
2022/07/26 13:52:58;;;;;;;1.08;0.90;;;;;;;;;;5124662;28;20198;-63
2022/07/26 13:55:26;;;;;;;0.93;0.90;;;;;;;;;;5118363;28;20197;-63
2022/07/26 13:57:53;;;;;;;1.05;1.00;;;;;;;;;;5124953;28;20195;-63
2022/07/26 14:00:22;;;;;;;1.13;0.80;;;;;;;;;;5118998;28;21581;-63
2022/07/26 14:02:49;;;;;;;1.20;0.93;;;;;;;;;;5133983;28;20194;-63
2022/07/26 14:05:17;;;;;;;1.08;1.00;;;;;;;;;;5134260;28;20259;-63
2022/07/26 14:07:44;;;;;;;0.80;0.80;;;;;;;;;;5118630;28;20206;-64
2022/07/26 14:10:12;;;;;;;1.23;0.85;;;;;;;;;;5124861;28;20693;-63
2022/07/26 14:12:40;;;;;;;1.13;0.80;;;;;;;;;;5134223;27;20269;-63
2022/07/26 14:15:09;;;;;;;1.20;1.10;;;;;;;;;;5133986;27;20210;-63
2022/07/26 14:17:37;;;;;;;1.40;1.00;;;;;;;;;;5133478;28;20194;-64
2022/07/26 14:20:05;;;;;;;2.15;0.90;;;;;;;;;;5120299;28;20191;-64
2022/07/26 14:22:33;;;;;;;0.80;0.80;;;;;;;;;;5129648;28;20198;-64
2022/07/26 14:25:00;;;;;;;0.70;0.70;;;;;;;;;;5115143;28;20263;-63
2022/07/26 14:27:27;;;;;;;1.20;1.10;;;;;;;;;;5133454;27;20255;-64
2022/07/26 14:29:55;;;;;;;0.90;0.90;;;;;;;;;;5130535;28;20222;-64
2022/07/26 14:32:22;;;;;;;0.80;0.80;;;;;;;;;;5133624;28;20267;-64
2022/07/26 14:34:51;;;;;;;1.05;0.80;;;;;;;;;;5132471;28;20195;-63
2022/07/26 14:37:18;;;;;;;1.58;1.20;;;;;;;;;;5133040;28;20195;-63
2022/07/26 14:39:46;;;;;;;1.63;1.25;;;;;;;;;;5133117;28;20236;-64
2022/07/26 14:42:13;;;;;;;1.70;1.20;;;;;;;;;;5134010;28;20210;-64
2022/07/26 14:44:41;;;;;;;1.30;1.20;;;;;;;;;;5134345;28;20263;-65
2022/07/26 14:47:09;;;;;;;1.50;1.40;;;;;;;;;;5133657;28;20473;-64
2022/07/26 14:49:37;;;;;;;1.60;1.50;;;;;;;;;;5133640;28;20283;-64
2022/07/26 14:52:05;;;;;;;1.30;1.08;;;;;;;;;;5133667;28;20217;-64